N5NC KEGE-KCOS
Flight info
| Callsign | N5NC |
|---|---|
| Flight time | 0h 39m |
| Altitude | 19000 |
| Route | BEVVR1 RUBAY RODDY FLOOD DBRY5 |
| Aircraft | C525/L-SDFGRWYZ/LB1 |
Departure
| Time | 2026-04-23 15:37 |
|---|---|
| Airport | Eagle County Regional Airport (KEGE) |
Arrival
| Time | 2026-04-23 16:17 |
|---|---|
| Airport | City of Colorado Springs Municipal Airport (KCOS) |
| Time | Latitude | Longitude | Altitude | Speed | Heading |
|---|---|---|---|---|---|
| 2026-04-23 15:24 | 39.64127 | -106.90900 | 6558 ft | 0 kts | 77° |
| 2026-04-23 15:34 | 39.64128 | -106.90899 | 6559 ft | 1 kts | 77° |
| 2026-04-23 15:35 | 39.64154 | -106.90869 | 6559 ft | 9 kts | 24° |
| 2026-04-23 15:35 | 39.64194 | -106.90802 | 6559 ft | 11 kts | 83° |
| 2026-04-23 15:35 | 39.64211 | -106.90660 | 6559 ft | 19 kts | 66° |
| 2026-04-23 15:35 | 39.64281 | -106.90543 | 6559 ft | 21 kts | 81° |
| 2026-04-23 15:36 | 39.64304 | -106.90342 | 6559 ft | 25 kts | 82° |
| 2026-04-23 15:36 | 39.64329 | -106.90114 | 6559 ft | 25 kts | 83° |
| 2026-04-23 15:36 | 39.64432 | -106.90023 | 6559 ft | 19 kts | 329° |
| 2026-04-23 15:36 | 39.64423 | -106.90276 | 6559 ft | 52 kts | 262° |
| 2026-04-23 15:37 | 39.64346 | -106.90976 | 6559 ft | 101 kts | 262° |
| 2026-04-23 15:37 | 39.64236 | -106.91994 | 6746 ft | 118 kts | 262° |
| 2026-04-23 15:37 | 39.64114 | -106.93059 | 7107 ft | 123 kts | 256° |
| 2026-04-23 15:37 | 39.63659 | -106.94103 | 7379 ft | 142 kts | 230° |
| 2026-04-23 15:38 | 39.62898 | -106.94903 | 7876 ft | 146 kts | 219° |
| 2026-04-23 15:38 | 39.62034 | -106.95663 | 8289 ft | 154 kts | 216° |
| 2026-04-23 15:38 | 39.61139 | -106.96352 | 8856 ft | 149 kts | 214° |
| 2026-04-23 15:38 | 39.60237 | -106.97012 | 9327 ft | 150 kts | 212° |
| 2026-04-23 15:39 | 39.59323 | -106.97681 | 9764 ft | 153 kts | 213° |
| 2026-04-23 15:39 | 39.58425 | -106.98452 | 10132 ft | 158 kts | 233° |
| 2026-04-23 15:39 | 39.58057 | -106.99750 | 10545 ft | 157 kts | 264° |
| 2026-04-23 15:39 | 39.58004 | -107.01199 | 10942 ft | 163 kts | 271° |
| 2026-04-23 15:40 | 39.58030 | -107.02680 | 11328 ft | 170 kts | 272° |
| 2026-04-23 15:40 | 39.58076 | -107.04239 | 11717 ft | 178 kts | 273° |
| 2026-04-23 15:40 | 39.58208 | -107.05856 | 12090 ft | 186 kts | 289° |
| 2026-04-23 15:40 | 39.58938 | -107.07272 | 12453 ft | 195 kts | 309° |
| 2026-04-23 15:41 | 39.59915 | -107.08563 | 12729 ft | 208 kts | 314° |
| 2026-04-23 15:41 | 39.60987 | -107.09865 | 13118 ft | 214 kts | 314° |
| 2026-04-23 15:41 | 39.62242 | -107.10964 | 13478 ft | 225 kts | 339° |
| 2026-04-23 15:41 | 39.63808 | -107.11063 | 13883 ft | 234 kts | 1° |
| 2026-04-23 15:42 | 39.65460 | -107.10730 | 14269 ft | 241 kts | 6° |
| 2026-04-23 15:42 | 39.67117 | -107.10292 | 14654 ft | 247 kts | 7° |
| 2026-04-23 15:42 | 39.68825 | -107.09817 | 15042 ft | 251 kts | 7° |
| 2026-04-23 15:42 | 39.70541 | -107.09336 | 15428 ft | 255 kts | 7° |
| 2026-04-23 15:43 | 39.72155 | -107.08306 | 15792 ft | 271 kts | 36° |
| 2026-04-23 15:43 | 39.73193 | -107.06245 | 16166 ft | 285 kts | 67° |
| 2026-04-23 15:43 | 39.73334 | -107.03661 | 16554 ft | 292 kts | 99° |
| 2026-04-23 15:43 | 39.72520 | -107.01283 | 16945 ft | 292 kts | 127° |
| 2026-04-23 15:44 | 39.71225 | -106.99227 | 17347 ft | 293 kts | 134° |
| 2026-04-23 15:44 | 39.69841 | -106.97327 | 17739 ft | 294 kts | 137° |
| 2026-04-23 15:44 | 39.68394 | -106.95443 | 18129 ft | 295 kts | 138° |
| 2026-04-23 15:44 | 39.66913 | -106.93558 | 18411 ft | 300 kts | 138° |
| 2026-04-23 15:45 | 39.65408 | -106.91670 | 18676 ft | 306 kts | 139° |
| 2026-04-23 15:45 | 39.63852 | -106.89739 | 18938 ft | 311 kts | 139° |
| 2026-04-23 15:45 | 39.62275 | -106.87792 | 19035 ft | 322 kts | 139° |
| 2026-04-23 15:45 | 39.60608 | -106.85747 | 19050 ft | 334 kts | 139° |
| 2026-04-23 15:46 | 39.58881 | -106.83637 | 19046 ft | 346 kts | 139° |
| 2026-04-23 15:46 | 39.57110 | -106.81477 | 19047 ft | 354 kts | 139° |
| 2026-04-23 15:46 | 39.55308 | -106.79283 | 19048 ft | 360 kts | 139° |
| 2026-04-23 15:46 | 39.53460 | -106.77035 | 19091 ft | 363 kts | 139° |
| 2026-04-23 15:47 | 39.51657 | -106.74847 | 19488 ft | 356 kts | 139° |
| 2026-04-23 15:47 | 39.49874 | -106.72683 | 19878 ft | 351 kts | 139° |
| 2026-04-23 15:47 | 39.48097 | -106.70529 | 20263 ft | 346 kts | 139° |
| 2026-04-23 15:47 | 39.46350 | -106.68414 | 20643 ft | 342 kts | 140° |
| 2026-04-23 15:48 | 39.44622 | -106.66326 | 21024 ft | 338 kts | 140° |
| 2026-04-23 15:48 | 39.42915 | -106.64264 | 21406 ft | 334 kts | 140° |
| 2026-04-23 15:48 | 39.41216 | -106.62215 | 21796 ft | 330 kts | 140° |
| 2026-04-23 15:48 | 39.39564 | -106.60223 | 22179 ft | 327 kts | 140° |
| 2026-04-23 15:49 | 39.37904 | -106.58226 | 22492 ft | 326 kts | 140° |
| 2026-04-23 15:49 | 39.37301 | -106.57499 | 22589 ft | 326 kts | 140° |
| 2026-04-23 15:49 | 39.35737 | -106.55619 | 22835 ft | 326 kts | 140° |
| 2026-04-23 15:49 | 39.34066 | -106.53612 | 22969 ft | 331 kts | 140° |
| 2026-04-23 15:50 | 39.33791 | -106.53284 | 22973 ft | 333 kts | 141° |
| 2026-04-23 15:50 | 39.32935 | -106.52256 | 22984 ft | 337 kts | 140° |
| 2026-04-23 15:50 | 39.31206 | -106.50184 | 22997 ft | 345 kts | 141° |
| 2026-04-23 15:50 | 39.29408 | -106.48030 | 22999 ft | 353 kts | 140° |
| 2026-04-23 15:51 | 39.27599 | -106.45862 | 23033 ft | 358 kts | 140° |
| 2026-04-23 15:51 | 39.25774 | -106.43674 | 23313 ft | 357 kts | 141° |
| 2026-04-23 15:51 | 39.23973 | -106.41516 | 23571 ft | 356 kts | 141° |
| 2026-04-23 15:51 | 39.22162 | -106.39349 | 23820 ft | 355 kts | 141° |
| 2026-04-23 15:52 | 39.20346 | -106.37176 | 24066 ft | 355 kts | 142° |
| 2026-04-23 15:52 | 39.18550 | -106.35030 | 24329 ft | 354 kts | 142° |
| 2026-04-23 15:52 | 39.16748 | -106.32877 | 24583 ft | 352 kts | 143° |
| 2026-04-23 15:52 | 39.14949 | -106.30731 | 24835 ft | 351 kts | 142° |
| 2026-04-23 15:53 | 39.13156 | -106.28595 | 24980 ft | 353 kts | 144° |
| 2026-04-23 15:53 | 39.11341 | -106.26437 | 24996 ft | 359 kts | 143° |
| 2026-04-23 15:53 | 39.09481 | -106.24227 | 24997 ft | 365 kts | 144° |
| 2026-04-23 15:53 | 39.07626 | -106.22025 | 24987 ft | 370 kts | 144° |
| 2026-04-23 15:54 | 39.05715 | -106.19756 | 24993 ft | 374 kts | 144° |
| 2026-04-23 15:54 | 39.03799 | -106.17481 | 24979 ft | 378 kts | 144° |
| 2026-04-23 15:54 | 39.01861 | -106.15183 | 25000 ft | 381 kts | 143° |
| 2026-04-23 15:54 | 38.99916 | -106.12876 | 24999 ft | 383 kts | 144° |
| 2026-04-23 15:55 | 38.97948 | -106.10541 | 24991 ft | 383 kts | 144° |
| 2026-04-23 15:55 | 38.95999 | -106.08233 | 24986 ft | 384 kts | 144° |
| 2026-04-23 15:55 | 38.94041 | -106.05916 | 24995 ft | 384 kts | 144° |
| 2026-04-23 15:55 | 38.92078 | -106.03595 | 24990 ft | 385 kts | 144° |
| 2026-04-23 15:56 | 38.90094 | -106.01251 | 25003 ft | 385 kts | 144° |
| 2026-04-23 15:56 | 38.88128 | -105.98931 | 24996 ft | 385 kts | 144° |
| 2026-04-23 15:56 | 38.86174 | -105.96627 | 25000 ft | 386 kts | 144° |
| 2026-04-23 15:56 | 38.84189 | -105.94287 | 25000 ft | 386 kts | 144° |
| 2026-04-23 15:57 | 38.82198 | -105.91944 | 24987 ft | 386 kts | 145° |
| 2026-04-23 15:57 | 38.80246 | -105.89647 | 24992 ft | 386 kts | 144° |
| 2026-04-23 15:57 | 38.78255 | -105.87307 | 24988 ft | 386 kts | 145° |
| 2026-04-23 15:57 | 38.76293 | -105.85003 | 24979 ft | 386 kts | 144° |
| 2026-04-23 15:58 | 38.74298 | -105.82662 | 24960 ft | 387 kts | 145° |
| 2026-04-23 15:58 | 38.72320 | -105.80341 | 24949 ft | 386 kts | 144° |
| 2026-04-23 15:58 | 38.70344 | -105.78027 | 24946 ft | 386 kts | 145° |
| 2026-04-23 15:58 | 38.68377 | -105.75721 | 24956 ft | 385 kts | 146° |
| 2026-04-23 15:59 | 38.66403 | -105.73415 | 24959 ft | 386 kts | 145° |
| 2026-04-23 15:59 | 38.64410 | -105.71087 | 24943 ft | 386 kts | 145° |
| 2026-04-23 15:59 | 38.62436 | -105.68778 | 24970 ft | 385 kts | 145° |
| 2026-04-23 15:59 | 38.60450 | -105.66462 | 24960 ft | 384 kts | 145° |
| 2026-04-23 16:00 | 38.58491 | -105.64175 | 24986 ft | 384 kts | 146° |
| 2026-04-23 16:00 | 38.56525 | -105.61886 | 24989 ft | 384 kts | 145° |
| 2026-04-23 16:00 | 38.54557 | -105.59595 | 24998 ft | 383 kts | 146° |
| 2026-04-23 16:00 | 38.52571 | -105.57284 | 24986 ft | 383 kts | 145° |
| 2026-04-23 16:01 | 38.50606 | -105.55001 | 25011 ft | 383 kts | 146° |
| 2026-04-23 16:01 | 38.48656 | -105.52734 | 25003 ft | 383 kts | 146° |
| 2026-04-23 16:01 | 38.46680 | -105.50441 | 25015 ft | 382 kts | 146° |
| 2026-04-23 16:01 | 38.44706 | -105.48153 | 25015 ft | 382 kts | 146° |
| 2026-04-23 16:02 | 38.42763 | -105.45900 | 25015 ft | 382 kts | 146° |
| 2026-04-23 16:02 | 38.40794 | -105.43621 | 25025 ft | 382 kts | 146° |
| 2026-04-23 16:02 | 38.38817 | -105.41335 | 25009 ft | 383 kts | 146° |
| 2026-04-23 16:02 | 38.37014 | -105.38777 | 24980 ft | 398 kts | 128° |
| 2026-04-23 16:03 | 38.36000 | -105.35439 | 25007 ft | 412 kts | 107° |
| 2026-04-23 16:03 | 38.35558 | -105.31821 | 25010 ft | 414 kts | 102° |
| 2026-04-23 16:03 | 38.35263 | -105.28184 | 25011 ft | 415 kts | 99° |
| 2026-04-23 16:03 | 38.35008 | -105.24535 | 24992 ft | 415 kts | 98° |
| 2026-04-23 16:04 | 38.34767 | -105.20918 | 25008 ft | 415 kts | 99° |
| 2026-04-23 16:04 | 38.34524 | -105.17254 | 25025 ft | 415 kts | 99° |
| 2026-04-23 16:04 | 38.34287 | -105.13637 | 25013 ft | 414 kts | 98° |
| 2026-04-23 16:04 | 38.34047 | -105.09991 | 25018 ft | 411 kts | 99° |
| 2026-04-23 16:05 | 38.33888 | -105.07589 | 24832 ft | 412 kts | 99° |
| 2026-04-23 16:05 | 38.33557 | -105.02676 | 24313 ft | 419 kts | 99° |
| 2026-04-23 16:05 | 38.33315 | -104.99029 | 23931 ft | 415 kts | 99° |
| 2026-04-23 16:05 | 38.33074 | -104.95392 | 23527 ft | 410 kts | 99° |
| 2026-04-23 16:06 | 38.32834 | -104.91808 | 23139 ft | 405 kts | 99° |
| 2026-04-23 16:06 | 38.32594 | -104.88251 | 22750 ft | 401 kts | 99° |
| 2026-04-23 16:06 | 38.32356 | -104.84737 | 22337 ft | 395 kts | 99° |
| 2026-04-23 16:06 | 38.32123 | -104.81325 | 21941 ft | 389 kts | 99° |
| 2026-04-23 16:07 | 38.31889 | -104.77913 | 21548 ft | 385 kts | 99° |
| 2026-04-23 16:07 | 38.31722 | -104.74532 | 21109 ft | 385 kts | 91° |
| 2026-04-23 16:07 | 38.32364 | -104.71252 | 20668 ft | 387 kts | 66° |
| 2026-04-23 16:07 | 38.33920 | -104.68481 | 20201 ft | 382 kts | 41° |
| 2026-04-23 16:08 | 38.36098 | -104.66696 | 19758 ft | 367 kts | 16° |
| 2026-04-23 16:08 | 38.38524 | -104.65895 | 19313 ft | 355 kts | 4° |
| 2026-04-23 16:08 | 38.40933 | -104.65443 | 18871 ft | 349 kts | 359° |
| 2026-04-23 16:08 | 38.43333 | -104.65134 | 18418 ft | 344 kts | 358° |
| 2026-04-23 16:09 | 38.45712 | -104.64905 | 17960 ft | 341 kts | 357° |
| 2026-04-23 16:09 | 38.48052 | -104.64726 | 17512 ft | 337 kts | 356° |
| 2026-04-23 16:09 | 38.50409 | -104.64579 | 17082 ft | 334 kts | 356° |
| 2026-04-23 16:09 | 38.52718 | -104.64460 | 16621 ft | 331 kts | 356° |
| 2026-04-23 16:10 | 38.55011 | -104.64359 | 16159 ft | 326 kts | 356° |
| 2026-04-23 16:10 | 38.57245 | -104.64270 | 15649 ft | 315 kts | 355° |
| 2026-04-23 16:10 | 38.59398 | -104.64193 | 15146 ft | 306 kts | 356° |
| 2026-04-23 16:10 | 38.61494 | -104.64125 | 14639 ft | 298 kts | 356° |
| 2026-04-23 16:11 | 38.63522 | -104.64066 | 14145 ft | 291 kts | 356° |
| 2026-04-23 16:11 | 38.65522 | -104.64011 | 13643 ft | 285 kts | 356° |
| 2026-04-23 16:11 | 38.67469 | -104.63959 | 13138 ft | 271 kts | 356° |
| 2026-04-23 16:11 | 38.69279 | -104.63910 | 12634 ft | 254 kts | 355° |
| 2026-04-23 16:12 | 38.70999 | -104.63865 | 12133 ft | 241 kts | 355° |
| 2026-04-23 16:12 | 38.72594 | -104.63823 | 11729 ft | 221 kts | 355° |
| 2026-04-23 16:12 | 38.74105 | -104.63788 | 11252 ft | 217 kts | 355° |
| 2026-04-23 16:12 | 38.75599 | -104.63757 | 10775 ft | 214 kts | 355° |
| 2026-04-23 16:13 | 38.77059 | -104.63726 | 10295 ft | 208 kts | 356° |
| 2026-04-23 16:13 | 38.79742 | -104.63663 | 9421 ft | 176 kts | 354° |
| 2026-04-23 16:13 | 38.80915 | -104.63654 | 9192 ft | 161 kts | 354° |
| 2026-04-23 16:14 | 38.82025 | -104.63646 | 8848 ft | 159 kts | 352° |
| 2026-04-23 16:14 | 38.83118 | -104.63706 | 8538 ft | 150 kts | 341° |
| 2026-04-23 16:14 | 38.83925 | -104.64338 | 8296 ft | 133 kts | 301° |
| 2026-04-23 16:14 | 38.84233 | -104.65382 | 8066 ft | 126 kts | 278° |
| 2026-04-23 16:15 | 38.84354 | -104.66460 | 7904 ft | 119 kts | 274° |
| 2026-04-23 16:15 | 38.84418 | -104.67513 | 7701 ft | 116 kts | 270° |
| 2026-04-23 16:15 | 38.84432 | -104.68547 | 7475 ft | 117 kts | 268° |
| 2026-04-23 16:15 | 38.84423 | -104.69606 | 7289 ft | 119 kts | 266° |
| 2026-04-23 16:16 | 38.84241 | -104.70641 | 7044 ft | 121 kts | 239° |
| 2026-04-23 16:16 | 38.83575 | -104.71327 | 6721 ft | 130 kts | 210° |
| 2026-04-23 16:16 | 38.82673 | -104.71570 | 6363 ft | 132 kts | 189° |
| 2026-04-23 16:16 | 38.81802 | -104.71587 | 6147 ft | 115 kts | 186° |
| 2026-04-23 16:17 | 38.81084 | -104.71598 | 6110 ft | 91 kts | 181° |
| 2026-04-23 16:17 | 38.80699 | -104.71594 | 6094 ft | 27 kts | 189° |
| 2026-04-23 16:17 | 38.80621 | -104.71746 | 6090 ft | 21 kts | 268° |
| 2026-04-23 16:17 | 38.80623 | -104.71915 | 6088 ft | 16 kts | 280° |
| 2026-04-23 16:18 | 38.80685 | -104.72019 | 6088 ft | 12 kts | 326° |
| 2026-04-23 16:18 | 38.80718 | -104.72027 | 6090 ft | 0 kts | 4° |